Time;durP1;ratioP1;P1;durP2;ratioP2;P2;SDS_P1;SDS_P2;PMS_P1;PMS_P2;Temp;Humidity;BMP_temperature;BMP_pressure;BME280_temperature;BME280_humidity;BME280_pressure;Samples;Min_cycle;Max_cycle;Signal;HPM_P1;HPM_P2
2023/09/07 00:01:21;;;;;;;1.25;1.10;;;;;;;15.83;100.00;98395.50;1225920;75;2923700;-64
2023/09/07 00:03:54;;;;;;;1.30;1.20;;;;;;;15.81;100.00;98395.25;1225976;75;2912069;-68
2023/09/07 00:06:27;;;;;;;1.75;1.50;;;;;;;15.73;100.00;98388.69;1224764;75;2915897;-68
2023/09/07 00:09:00;;;;;;;1.05;0.85;;;;;;;15.77;100.00;98386.41;1225299;75;2914527;-66
2023/09/07 00:11:33;;;;;;;1.40;1.10;;;;;;;15.78;100.00;98390.72;1225139;75;2913565;-64
2023/09/07 00:14:06;;;;;;;1.10;1.00;;;;;;;15.67;100.00;98388.59;1225312;75;2925098;-65
2023/09/07 00:16:42;;;;;;;1.00;0.90;;;;;;;15.61;100.00;98387.03;1225477;75;2915579;-67
2023/09/07 00:19:15;;;;;;;1.15;1.05;;;;;;;15.58;100.00;98386.03;1224767;75;2917704;-66
2023/09/07 00:21:47;;;;;;;1.10;1.00;;;;;;;15.60;100.00;98391.81;1225044;75;2916200;-65
2023/09/07 00:24:21;;;;;;;1.25;1.15;;;;;;;15.61;100.00;98384.28;1225357;75;2917290;-65
2023/09/07 00:26:53;;;;;;;1.40;1.20;;;;;;;15.51;100.00;98395.53;1225098;75;2918859;-64
2023/09/07 00:29:27;;;;;;;1.05;0.95;;;;;;;15.51;100.00;98397.50;1224330;75;2918336;-67
2023/09/07 00:32:02;;;;;;;1.40;1.30;;;;;;;15.24;100.00;98391.31;1225578;75;2912228;-65
2023/09/07 00:34:35;;;;;;;1.45;1.35;;;;;;;15.28;100.00;98396.59;1225449;75;2920285;-66
2023/09/07 00:37:08;;;;;;;1.85;1.50;;;;;;;15.21;100.00;98394.28;1225357;75;2915054;-66
2023/09/07 00:39:41;;;;;;;1.65;1.50;;;;;;;15.32;100.00;98388.84;1225769;75;2911824;-69
2023/09/07 00:42:13;;;;;;;1.40;1.20;;;;;;;15.42;100.00;98389.44;1225354;75;2911584;-66
2023/09/07 00:44:46;;;;;;;1.20;1.10;;;;;;;15.42;100.00;98386.69;1225124;75;2913543;-66
2023/09/07 00:47:21;;;;;;;1.45;1.30;;;;;;;15.32;100.00;98378.59;1225077;75;2918386;-67
2023/09/07 00:49:54;;;;;;;1.25;1.15;;;;;;;15.38;100.00;98377.88;1225291;75;2923424;-65
2023/09/07 00:52:27;;;;;;;1.65;1.55;;;;;;;15.08;100.00;98378.13;1225274;75;2921059;-65
2023/09/07 00:55:00;;;;;;;1.45;1.20;;;;;;;15.23;100.00;98370.50;1226361;75;2913385;-65
2023/09/07 00:57:33;;;;;;;1.80;1.65;;;;;;;15.11;100.00;98371.66;1225507;75;2909283;-66
2023/09/07 01:00:07;;;;;;;1.85;1.60;;;;;;;15.27;100.00;98364.75;1225176;75;2922829;-66
2023/09/07 01:02:44;;;;;;;1.40;1.30;;;;;;;15.29;100.00;98367.75;1224772;75;2913242;-66
2023/09/07 01:05:17;;;;;;;1.45;1.30;;;;;;;15.17;100.00;98366.91;1225432;75;2913852;-68
2023/09/07 01:08:00;;;;;;;2.05;1.50;;;;;;;15.09;100.00;98369.38;1225963;75;2918541;-67
2023/09/07 01:10:30;;;;;;;1.80;1.65;;;;;;;15.06;100.00;98370.34;1225389;75;2921221;-66
2023/09/07 01:13:02;;;;;;;1.45;1.30;;;;;;;15.06;100.00;98364.84;1226133;75;2916776;-68
2023/09/07 01:15:35;;;;;;;1.35;1.25;;;;;;;15.08;100.00;98359.59;1224591;75;2916006;-66
2023/09/07 01:18:12;;;;;;;1.55;1.20;;;;;;;14.99;100.00;98370.06;1224257;75;2914567;-67
2023/09/07 01:20:47;;;;;;;1.30;1.20;;;;;;;15.00;100.00;98360.53;1224944;75;2914283;-65
2023/09/07 01:23:23;;;;;;;1.60;1.40;;;;;;;14.88;100.00;98354.16;1225168;75;2912680;-69
2023/09/07 01:25:58;;;;;;;1.80;1.60;;;;;;;14.85;100.00;98355.88;1225311;75;2920897;-66
2023/09/07 01:28:30;;;;;;;1.50;1.40;;;;;;;14.93;100.00;98367.22;1224928;75;2915262;-66
2023/09/07 01:31:03;;;;;;;1.75;1.50;;;;;;;14.86;100.00;98362.94;1225354;75;2925278;-66
2023/09/07 01:33:37;;;;;;;1.30;1.20;;;;;;;14.94;100.00;98359.72;1225585;75;2912875;-66
2023/09/07 01:36:10;;;;;;;1.30;1.20;;;;;;;14.76;100.00;98364.31;1226184;75;2909474;-65
2023/09/07 01:38:46;;;;;;;1.20;1.10;;;;;;;14.86;100.00;98353.88;1224759;75;2918134;-66
2023/09/07 01:41:18;;;;;;;1.35;1.25;;;;;;;14.78;100.00;98356.31;1224809;75;2917889;-67
2023/09/07 01:43:51;;;;;;;1.20;1.10;;;;;;;14.73;100.00;98361.78;1225098;75;2922481;-65
2023/09/07 01:46:24;;;;;;;1.10;1.00;;;;;;;14.73;100.00;98354.28;1224761;75;2920437;-64
2023/09/07 01:48:56;;;;;;;1.30;1.20;;;;;;;14.70;100.00;98355.25;1224039;75;2934024;-67
2023/09/07 01:51:30;;;;;;;1.70;1.30;;;;;;;14.73;100.00;98357.03;1224594;75;2922315;-67
2023/09/07 01:54:05;;;;;;;1.65;1.15;;;;;;;14.78;100.00;98352.81;1224809;75;2921453;-67
2023/09/07 01:56:39;;;;;;;1.30;1.20;;;;;;;14.69;100.00;98351.72;1224878;75;2916936;-66
2023/09/07 01:59:11;;;;;;;1.40;1.30;;;;;;;14.70;100.00;98358.75;1224982;67;2914329;-65
2023/09/07 02:01:44;;;;;;;1.35;1.25;;;;;;;14.67;100.00;98356.97;1225800;75;2912776;-67
2023/09/07 02:04:16;;;;;;;1.30;1.20;;;;;;;14.58;100.00;98348.13;1224863;75;2926475;-64
2023/09/07 02:06:49;;;;;;;1.65;1.40;;;;;;;14.64;100.00;98352.44;1225517;75;2920742;-67
2023/09/07 02:09:24;;;;;;;1.40;1.30;;;;;;;14.62;100.00;98345.88;1225820;75;2910220;-67
2023/09/07 02:11:56;;;;;;;1.35;1.25;;;;;;;14.63;100.00;98344.66;1225273;75;2914565;-66
2023/09/07 02:14:29;;;;;;;1.90;1.65;;;;;;;14.63;100.00;98344.66;1225552;75;2916798;-67
2023/09/07 02:17:01;;;;;;;1.20;1.00;;;;;;;14.64;100.00;98351.69;1225797;75;2917252;-64
2023/09/07 02:19:35;;;;;;;1.00;0.90;;;;;;;14.59;100.00;98344.13;1224782;75;2915114;-66
2023/09/07 02:22:08;;;;;;;1.60;1.40;;;;;;;14.50;100.00;98358.75;1225753;75;2917835;-66
2023/09/07 02:24:43;;;;;;;1.40;1.30;;;;;;;14.40;100.00;98349.16;1225706;75;2913644;-66
2023/09/07 02:27:15;;;;;;;1.80;1.45;;;;;;;14.43;100.00;98350.94;1225763;75;2917202;-67
2023/09/07 02:29:48;;;;;;;1.60;1.50;;;;;;;14.21;100.00;98346.69;1224977;75;2912215;-66
2023/09/07 02:32:21;;;;;;;1.95;1.75;;;;;;;14.26;100.00;98343.25;1224663;75;2916301;-65
2023/09/07 02:34:53;;;;;;;2.35;2.15;;;;;;;14.19;100.00;98345.66;1225604;75;2913994;-68
2023/09/07 02:37:26;;;;;;;1.90;1.70;;;;;;;14.24;100.00;98347.75;1223260;75;2924514;-67
2023/09/07 02:40:04;;;;;;;3.75;1.85;;;;;;;14.37;100.00;98350.13;1224406;75;2920818;-64
2023/09/07 02:42:37;;;;;;;1.50;1.30;;;;;;;14.23;100.00;98352.47;1225092;75;2915933;-66
2023/09/07 02:45:13;;;;;;;2.20;1.40;;;;;;;14.23;100.00;98348.97;1224951;75;2925084;-66
2023/09/07 02:47:46;;;;;;;1.60;1.50;;;;;;;14.12;100.00;98355.13;1224708;75;2917230;-67
2023/09/07 02:50:19;;;;;;;1.70;1.60;;;;;;;14.14;100.00;98349.88;1224195;75;2928347;-66
2023/09/07 02:52:51;;;;;;;3.00;1.90;;;;;;;14.22;100.00;98352.97;1225106;75;2923648;-66
2023/09/07 02:55:26;;;;;;;1.70;1.45;;;;;;;13.97;100.00;98343.41;1225448;75;2920736;-65
2023/09/07 02:58:00;;;;;;;1.70;1.60;;;;;;;14.12;100.00;98348.81;1224492;75;2921308;-67
2023/09/07 03:00:34;;;;;;;2.35;1.80;;;;;;;14.04;100.00;98349.25;1225094;75;2916102;-65
2023/09/07 03:03:07;;;;;;;2.90;1.80;;;;;;;13.89;100.00;98350.56;1224324;75;2917686;-65
2023/09/07 03:05:41;;;;;;;2.00;1.80;;;;;;;14.15;100.00;98347.88;1225466;75;2920117;-64
2023/09/07 03:08:14;;;;;;;2.70;1.60;;;;;;;13.96;100.00;98347.41;1224594;75;2916486;-64
2023/09/07 03:10:49;;;;;;;1.75;1.60;;;;;;;13.92;100.00;98352.34;1223785;75;2926391;-65
2023/09/07 03:13:22;;;;;;;1.75;1.65;;;;;;;13.95;100.00;98354.91;1225323;75;2914491;-66
2023/09/07 03:15:57;;;;;;;2.00;1.70;;;;;;;13.98;100.00;98353.94;1224633;75;2921152;-64
2023/09/07 03:18:30;;;;;;;1.30;1.20;;;;;;;13.93;100.00;98349.13;1223528;75;2921738;-67
2023/09/07 03:21:05;;;;;;;2.70;2.00;;;;;;;13.85;100.00;98345.25;1225172;75;2922927;-68
2023/09/07 03:23:39;;;;;;;2.25;1.60;;;;;;;13.86;100.00;98346.78;1224812;75;2925035;-67
2023/09/07 03:26:14;;;;;;;1.50;1.35;;;;;;;13.92;100.00;98349.59;1183454;75;6328447;-67
2023/09/07 03:28:47;;;;;;;1.80;1.55;;;;;;;13.87;100.00;98351.03;1224248;75;2929315;-66
2023/09/07 03:31:19;;;;;;;2.65;1.75;;;;;;;13.73;100.00;98349.09;1225797;75;2917600;-64
2023/09/07 03:33:52;;;;;;;1.60;1.50;;;;;;;13.70;100.00;98355.56;1225028;75;2917245;-67
2023/09/07 03:36:24;;;;;;;1.65;1.55;;;;;;;13.67;100.00;98353.78;1224884;75;2913969;-66
2023/09/07 03:38:57;;;;;;;1.70;1.60;;;;;;;13.77;100.00;98344.91;1221020;75;2981032;-68
2023/09/07 03:41:32;;;;;;;1.85;1.70;;;;;;;13.66;100.00;98342.00;1222235;75;3023557;-64
2023/09/07 03:44:05;;;;;;;1.75;1.50;;;;;;;13.62;100.00;98353.22;1223965;75;2931636;-65
2023/09/07 03:46:37;;;;;;;2.00;1.85;;;;;;;13.55;100.00;98347.38;1224417;75;2917653;-65
2023/09/07 03:49:10;;;;;;;2.55;1.80;;;;;;;13.56;100.00;98351.63;1223913;75;2917385;-68
2023/09/07 03:51:42;;;;;;;2.20;1.60;;;;;;;13.56;100.00;98349.63;1224059;75;2924862;-66
2023/09/07 03:54:15;;;;;;;1.50;1.40;;;;;;;13.59;100.00;98353.44;1223907;75;2932095;-65
2023/09/07 03:56:50;;;;;;;1.65;1.55;;;;;;;13.53;100.00;98353.34;1224064;75;2920990;-68
2023/09/07 03:59:23;;;;;;;1.65;1.50;;;;;;;13.50;100.00;98348.81;1224223;75;2922561;-65
2023/09/07 04:01:55;;;;;;;2.95;2.20;;;;;;;13.51;100.00;98361.31;1223900;75;2923026;-66
2023/09/07 04:04:28;;;;;;;1.70;1.50;;;;;;;13.52;100.00;98360.09;1223235;75;2930078;-65
2023/09/07 04:07:00;;;;;;;2.00;1.80;;;;;;;13.51;100.00;98361.31;1225121;75;2920206;-65
2023/09/07 04:09:34;;;;;;;2.25;1.60;;;;;;;13.50;100.00;98362.56;1224255;75;2922940;-66
2023/09/07 04:12:10;;;;;;;1.60;1.50;;;;;;;13.52;100.00;98362.84;1224319;75;2929038;-66
2023/09/07 04:14:42;;;;;;;2.45;1.60;;;;;;;13.58;100.00;98362.91;1225258;75;2919321;-66
2023/09/07 04:17:15;;;;;;;1.85;1.25;;;;;;;13.47;100.00;98365.50;1224320;75;2923033;-66
2023/09/07 04:19:48;;;;;;;1.30;1.15;;;;;;;13.49;100.00;98365.78;1223726;75;2948578;-66
2023/09/07 04:22:20;;;;;;;2.25;1.75;;;;;;;13.55;100.00;98372.13;1225166;75;2913059;-66
2023/09/07 04:24:53;;;;;;;1.70;1.60;;;;;;;13.55;100.00;98375.63;1225128;67;2921227;-66
2023/09/07 04:27:28;;;;;;;10.40;8.85;;;;;;;13.52;100.00;98378.59;1220820;75;3003375;-64
2023/09/07 04:30:01;;;;;;;10.05;7.90;;;;;;;13.41;100.00;98371.66;1225104;75;2927955;-64
2023/09/07 04:32:33;;;;;;;8.65;7.55;;;;;;;13.45;100.00;98382.50;1224044;75;2924298;-67
2023/09/07 04:35:07;;;;;;;9.25;7.75;;;;;;;13.41;100.00;98384.66;1223630;75;2921474;-66
2023/09/07 04:37:39;;;;;;;5.90;5.30;;;;;;;13.36;100.00;98388.09;1224677;75;2924019;-66
2023/09/07 04:40:13;;;;;;;4.70;4.20;;;;;;;13.37;100.00;98386.84;1223854;75;2923843;-66
2023/09/07 04:42:48;;;;;;;4.70;3.90;;;;;;;13.38;100.00;98383.63;1224365;75;2934189;-66
2023/09/07 04:45:21;;;;;;;3.40;3.10;;;;;;;13.49;100.00;98394.03;1225253;75;2923558;-66
2023/09/07 04:47:54;;;;;;;3.90;3.45;;;;;;;13.60;100.00;98385.94;1224075;75;2921729;-66
2023/09/07 04:50:27;;;;;;;3.85;3.35;;;;;;;13.60;100.00;98385.94;1223653;75;2933185;-65
2023/09/07 04:52:59;;;;;;;4.25;3.35;;;;;;;13.58;100.00;98382.16;1223266;75;2917123;-67
2023/09/07 04:55:32;;;;;;;2.65;2.40;;;;;;;13.57;100.00;98389.66;1224784;75;2923559;-68
2023/09/07 04:58:07;;;;;;;3.70;2.20;;;;;;;13.62;100.00;98393.75;1224561;75;2932905;-65
2023/09/07 05:00:40;;;;;;;2.80;2.40;;;;;;;13.55;100.00;98389.38;1225476;75;2922233;-65
2023/09/07 05:03:12;;;;;;;2.35;1.85;;;;;;;13.65;100.00;98392.78;1225550;75;2923515;-65
2023/09/07 05:05:46;;;;;;;2.00;1.75;;;;;;;13.71;100.00;98388.13;1225247;75;2923012;-65
2023/09/07 05:08:19;;;;;;;1.40;1.30;;;;;;;13.73;100.00;98396.63;1224133;75;2931543;-64
2023/09/07 05:10:52;;;;;;;1.70;1.55;;;;;;;13.76;100.00;98395.69;1225081;75;2919104;-66
2023/09/07 05:13:28;;;;;;;1.80;1.50;;;;;;;13.82;100.00;98393.75;1224736;75;2926081;-67
2023/09/07 05:16:02;;;;;;;1.35;1.25;;;;;;;13.85;100.00;98398.31;1224793;75;2922143;-68
2023/09/07 05:18:34;;;;;;;3.20;2.30;;;;;;;13.73;100.00;98406.88;1222199;75;2951629;-64
2023/09/07 05:21:16;;;;;;;2.95;2.65;;;;;;;13.87;100.00;98408.09;1224037;75;2905847;-68
2023/09/07 05:23:49;;;;;;;3.10;2.80;;;;;;;13.90;100.00;98404.38;1221620;75;2968784;-65
2023/09/07 05:26:26;;;;;;;3.50;2.30;;;;;;;14.10;100.00;98412.66;1224871;75;2923738;-65
2023/09/07 05:29:01;;;;;;;2.50;2.30;;;;;;;14.12;100.00;98417.66;1221494;75;2931513;-64
2023/09/07 05:31:33;;;;;;;3.70;3.05;;;;;;;14.22;100.00;98414.31;1224035;75;2919798;-65
2023/09/07 05:34:06;;;;;;;5.10;3.30;;;;;;;14.31;100.00;98405.16;1222466;75;2972582;-66
2023/09/07 05:36:39;;;;;;;3.30;2.50;;;;;;;14.37;100.00;98408.72;1223429;75;2919998;-66
2023/09/07 05:39:12;;;;;;;3.05;2.50;;;;;;;14.44;100.00;98407.56;1224199;75;2923917;-68
2023/09/07 05:41:44;;;;;;;2.50;2.30;;;;;;;14.49;100.00;98417.88;1224782;75;2922516;-64
2023/09/07 05:44:20;;;;;;;4.45;2.40;;;;;;;14.53;100.00;98417.66;1224492;75;2923578;-66
2023/09/07 05:46:52;;;;;;;2.75;2.25;;;;;;;14.57;100.00;98415.47;1188860;75;5598700;-64
2023/09/07 05:49:25;;;;;;;4.70;3.20;;;;;;;14.62;100.00;98414.78;1224380;75;2924925;-66
2023/09/07 05:52:00;;;;;;;4.35;3.40;;;;;;;14.85;100.00;98416.53;1224628;75;2921646;-64
2023/09/07 05:54:33;;;;;;;5.90;4.55;;;;;;;14.76;100.00;98415.94;1225432;75;2928107;-66
2023/09/07 05:57:06;;;;;;;5.25;4.05;;;;;;;15.05;100.00;98429.50;1224840;75;2924113;-67
2023/09/07 05:59:41;;;;;;;5.55;3.60;;;;;;;15.02;100.00;98430.47;1223645;75;2918845;-68
2023/09/07 06:02:14;;;;;;;4.85;4.35;;;;;;;15.11;100.00;98426.81;1225245;75;2925578;-64
2023/09/07 06:04:46;;;;;;;5.70;4.00;;;;;;;15.31;100.00;98420.44;1224841;75;2939394;-65
2023/09/07 06:07:19;;;;;;;3.25;2.95;;;;;;;15.51;100.00;98427.88;1224473;75;2932804;-68
2023/09/07 06:09:51;;;;;;;3.80;3.45;;;;;;;15.57;100.00;98430.69;1224507;75;2922646;-68
2023/09/07 06:12:24;;;;;;;6.10;3.20;;;;;;;15.75;100.00;98431.09;1223039;75;2930985;-66
2023/09/07 06:14:59;;;;;;;3.40;2.80;;;;;;;15.89;100.00;98434.19;1224170;75;2924727;-69
2023/09/07 06:17:32;;;;;;;3.30;2.90;;;;;;;16.08;100.00;98429.78;1224251;75;2921025;-66
2023/09/07 06:20:05;;;;;;;4.30;3.85;;;;;;;16.14;100.00;98429.81;1223273;75;2924027;-66
2023/09/07 06:22:38;;;;;;;4.70;4.30;;;;;;;16.21;100.00;98432.13;1222887;75;2928792;-66
2023/09/07 06:25:11;;;;;;;7.10;4.95;;;;;;;16.17;100.00;98437.09;1223092;75;2929782;-64
2023/09/07 06:27:44;;;;;;;4.65;3.60;;;;;;;16.49;100.00;98437.72;1223317;75;2916064;-66
2023/09/07 06:30:19;;;;;;;4.70;3.95;;;;;;;16.52;100.00;98433.97;1222289;75;2921891;-67
2023/09/07 06:32:53;;;;;;;5.20;4.70;;;;;;;16.57;100.00;98440.78;1224447;75;2917011;-67
2023/09/07 06:35:25;;;;;;;5.25;4.50;;;;;;;16.86;100.00;98450.72;1223884;75;2923374;-65
2023/09/07 06:37:58;;;;;;;5.25;4.10;;;;;;;17.18;100.00;98440.19;1223623;75;2916923;-66
2023/09/07 06:40:31;;;;;;;6.20;4.20;;;;;;;17.54;100.00;98442.47;1223382;75;2928966;-65
2023/09/07 06:43:05;;;;;;;10.15;5.00;;;;;;;17.61;100.00;98444.72;1223484;75;2915672;-66
2023/09/07 06:45:41;;;;;;;5.05;4.45;;;;;;;18.05;100.00;98448.72;1223474;75;2922113;-67
2023/09/07 06:48:14;;;;;;;6.00;4.00;;;;;;;18.25;100.00;98450.41;1224042;75;2918728;-64
2023/09/07 06:50:46;;;;;;;4.70;4.20;;;;;;;18.27;100.00;98445.88;1222385;75;2922286;-67
2023/09/07 06:53:19;;;;;;;5.00;4.10;;;;;;;18.46;100.00;98439.75;1221080;75;3027487;-66
2023/09/07 06:56:00;;;;;;;7.70;4.60;;;;;;;18.65;100.00;98445.47;1224418;75;2922036;-65
2023/09/07 06:58:34;;;;;;;5.15;4.40;;;;;;;18.96;100.00;98451.91;1225516;75;2923144;-64
2023/09/07 07:01:09;;;;;;;7.70;4.40;;;;;;;18.83;100.00;98444.13;1225094;75;2918690;-65
2023/09/07 07:03:41;;;;;;;7.15;4.30;;;;;;;18.78;100.00;98442.91;1224755;75;2917307;-69
2023/09/07 07:06:14;;;;;;;6.10;3.90;;;;;;;19.41;100.00;98449.56;1225542;75;2917895;-66
2023/09/07 07:08:47;;;;;;;5.05;3.85;;;;;;;19.47;100.00;98441.19;1223770;75;2918829;-67
2023/09/07 07:11:19;;;;;;;3.65;3.15;;;;;;;19.76;100.00;98448.00;1226154;75;2889688;-65
2023/09/07 07:13:52;;;;;;;5.65;3.60;;;;;;;19.86;100.00;98448.44;1224648;75;2925428;-70
2023/09/07 07:16:27;;;;;;;3.35;3.05;;;;;;;20.12;100.00;98454.22;1225337;75;2925893;-68
2023/09/07 07:18:59;;;;;;;7.10;4.10;;;;;;;19.99;100.00;98457.66;1224490;75;2922333;-64
2023/09/07 07:21:32;;;;;;;6.70;4.70;;;;;;;19.90;100.00;98460.75;1224125;75;2925199;-67
2023/09/07 07:24:06;;;;;;;6.15;4.90;;;;;;;20.05;99.54;98459.59;1224939;75;2919658;-65
2023/09/07 07:26:38;;;;;;;5.90;3.90;;;;;;;20.59;95.57;98453.22;1224273;75;2922051;-67
2023/09/07 07:29:11;;;;;;;7.15;4.65;;;;;;;20.34;99.62;98466.38;1223842;75;2918298;-68
2023/09/07 07:31:46;;;;;;;3.75;3.25;;;;;;;20.59;95.15;98456.00;1224226;75;2919273;-66
2023/09/07 07:34:19;;;;;;;4.85;3.20;;;;;;;20.85;95.04;98461.72;1222738;75;2921859;-65
2023/09/07 07:36:51;;;;;;;5.70;4.25;;;;;;;21.13;91.43;98459.81;1223377;75;2924069;-65
2023/09/07 07:39:24;;;;;;;6.50;4.95;;;;;;;21.16;90.16;98462.28;1224427;75;2922478;-66
2023/09/07 07:41:57;;;;;;;6.00;4.05;;;;;;;21.47;87.86;98466.38;1222894;75;2925501;-68
2023/09/07 07:44:29;;;;;;;6.45;4.25;;;;;;;21.46;85.80;98456.53;1225000;75;2918474;-67
2023/09/07 07:47:04;;;;;;;5.50;4.20;;;;;;;20.88;87.96;98468.25;1224718;75;2923557;-67
2023/09/07 07:49:37;;;;;;;5.25;3.25;;;;;;;21.75;87.79;98464.44;1223446;75;2927674;-66
2023/09/07 07:52:10;;;;;;;5.65;3.65;;;;;;;21.63;84.27;98466.66;1225184;75;2917867;-65
2023/09/07 07:54:42;;;;;;;5.50;3.70;;;;;;;21.47;85.08;98463.59;1224524;75;2931263;-66
2023/09/07 07:57:15;;;;;;;6.15;3.90;;;;;;;21.86;85.39;98462.19;1224595;75;2926196;-64
2023/09/07 07:59:47;;;;;;;5.65;3.85;;;;;;;21.86;81.97;98459.41;1224341;75;2926442;-64
2023/09/07 08:02:23;;;;;;;5.15;3.50;;;;;;;21.70;80.47;98463.25;1224670;75;2917640;-68
2023/09/07 08:04:55;;;;;;;6.35;3.70;;;;;;;21.87;81.21;98462.94;1224876;75;2924154;-67
2023/09/07 08:07:29;;;;;;;5.20;3.20;;;;;;;22.38;79.28;98467.59;1223574;75;2945944;-65
2023/09/07 08:10:03;;;;;;;4.80;3.25;;;;;;;22.36;79.27;98461.81;1223839;75;2926202;-67
2023/09/07 08:12:35;;;;;;;4.15;2.75;;;;;;;22.55;76.99;98460.38;1224556;75;2923282;-68
2023/09/07 08:15:12;;;;;;;4.45;2.80;;;;;;;22.57;76.29;98465.44;1223401;75;2919331;-66
2023/09/07 08:17:47;;;;;;;5.10;2.70;;;;;;;22.92;75.24;98457.84;1223476;75;2919900;-65
2023/09/07 08:20:20;;;;;;;6.25;3.30;;;;;;;22.73;74.49;98460.81;1224328;75;2920601;-70
2023/09/07 08:22:53;;;;;;;3.70;2.95;;;;;;;23.37;75.05;98459.63;1224222;75;2921788;-66
2023/09/07 08:25:25;;;;;;;7.65;4.25;;;;;;;23.24;72.55;98468.09;1224287;75;2928517;-69
2023/09/07 08:27:59;;;;;;;4.75;3.40;;;;;;;23.25;70.34;98456.34;1222269;75;2927648;-66
2023/09/07 08:30:32;;;;;;;3.50;2.60;;;;;;;23.53;69.75;98457.72;1223539;75;2933732;-68
2023/09/07 08:33:08;;;;;;;4.30;2.95;;;;;;;23.64;70.40;98456.69;1222990;75;2943302;-67
2023/09/07 08:35:43;;;;;;;4.25;2.85;;;;;;;23.39;72.65;98452.19;1224828;75;2917199;-66
2023/09/07 08:38:16;;;;;;;4.35;3.30;;;;;;;23.39;72.12;98454.25;1223375;75;2930875;-64
2023/09/07 08:40:49;;;;;;;6.65;3.50;;;;;;;23.65;71.04;98453.38;1223906;75;2928370;-66
2023/09/07 08:43:24;;;;;;;3.00;2.60;;;;;;;24.15;70.91;98444.97;1224665;75;2922409;-69
2023/09/07 08:46:12;;;;;;;3.50;2.85;;;;;;;24.31;69.17;98451.41;1223178;75;2930986;-68
2023/09/07 08:48:48;;;;;;;4.70;2.70;;;;;;;24.17;68.54;98445.16;1223848;75;2925452;-68
2023/09/07 08:51:22;;;;;;;6.50;3.05;;;;;;;24.04;68.46;98451.63;1224918;75;2925684;-67
2023/09/07 08:53:56;;;;;;;4.40;3.30;;;;;;;24.21;68.32;98448.38;1224954;75;2922614;-67
2023/09/07 08:56:29;;;;;;;5.15;3.20;;;;;;;24.09;66.54;98453.50;1224731;75;2920345;-64
2023/09/07 08:59:03;;;;;;;3.50;2.50;;;;;;;24.38;66.41;98442.28;1224775;75;2924172;-69
2023/09/07 09:01:37;;;;;;;4.25;3.30;;;;;;;23.98;66.27;98451.78;1224929;75;2922113;-67
2023/09/07 09:04:12;;;;;;;3.10;2.20;;;;;;;24.67;66.49;98438.16;1225404;75;2925760;-67
2023/09/07 09:06:45;;;;;;;3.80;2.80;;;;;;;24.89;65.73;98447.19;1224351;75;2929105;-67
2023/09/07 09:09:27;;;;;;;3.05;2.50;;;;;;;24.63;64.43;98434.97;1224064;75;2920840;-68
2023/09/07 09:12:10;;;;;;;4.80;3.10;;;;;;;24.56;64.82;98446.91;1224502;75;2918392;-66
2023/09/07 09:14:47;;;;;;;3.10;2.70;;;;;;;25.13;61.75;98445.94;1221802;75;2922294;-68
2023/09/07 09:17:19;;;;;;;2.95;2.50;;;;;;;25.26;62.73;98442.25;1223090;75;2921201;-68
2023/09/07 09:19:55;;;;;;;2.85;2.45;;;;;;;25.27;62.57;98438.13;1224565;75;2930206;-67
2023/09/07 09:22:27;;;;;;;4.90;2.85;;;;;;;24.86;62.32;98440.63;1223550;75;2929377;-66
2023/09/07 09:25:00;;;;;;;5.40;3.05;;;;;;;25.05;61.38;98434.72;1224577;75;2924312;-67
2023/09/07 09:27:33;;;;;;;3.75;2.15;;;;;;;25.67;60.57;98429.94;1224699;75;2922662;-67
2023/09/07 09:30:06;;;;;;;3.55;2.50;;;;;;;25.29;57.50;98430.66;1225375;75;2922712;-67
2023/09/07 09:32:39;;;;;;;3.80;2.90;;;;;;;25.21;57.36;98434.78;1225143;75;2925097;-66
2023/09/07 09:35:15;;;;;;;4.40;2.70;;;;;;;25.18;58.13;98441.50;1225363;75;2916300;-66
2023/09/07 09:37:49;;;;;;;2.40;2.10;;;;;;;25.89;57.72;98428.44;1222927;75;2919137;-66
2023/09/07 09:40:22;;;;;;;3.10;2.25;;;;;;;25.31;56.21;98427.31;1225506;75;2918616;-67
2023/09/07 09:42:58;;;;;;;2.80;2.15;;;;;;;25.92;56.15;98427.31;1224891;75;2919303;-68
2023/09/07 09:45:31;;;;;;;3.00;2.15;;;;;;;26.07;52.89;98434.22;1224820;75;2920813;-67
2023/09/07 09:48:04;;;;;;;2.85;2.15;;;;;;;25.44;52.48;98434.78;1224614;75;2924343;-65
2023/09/07 09:50:40;;;;;;;3.00;2.20;;;;;;;25.80;51.68;98437.41;1223855;75;2917708;-68
2023/09/07 09:53:15;;;;;;;4.30;1.95;;;;;;;25.66;51.31;98433.28;1223898;75;2922038;-66
2023/09/07 09:55:49;;;;;;;3.50;2.30;;;;;;;25.89;51.88;98438.94;1224185;75;2924468;-66
2023/09/07 09:58:21;;;;;;;2.55;1.85;;;;;;;26.21;51.56;98429.13;1223729;75;2924380;-70
2023/09/07 10:00:58;;;;;;;5.80;2.50;;;;;;;25.73;52.35;98424.13;1224752;75;2924181;-69
2023/09/07 10:03:36;;;;;;;3.40;1.70;;;;;;;26.63;52.92;98420.22;1224332;75;2926959;-68
2023/09/07 10:06:25;;;;;;;3.60;2.30;;;;;;;26.39;51.34;98422.34;1225669;75;2922542;-64
2023/09/07 10:09:03;;;;;;;5.05;2.10;;;;;;;26.01;48.73;98425.25;1217787;75;3125152;-67
2023/09/07 10:11:38;;;;;;;3.40;2.30;;;;;;;26.07;49.60;98422.97;1225756;75;2920126;-68
2023/09/07 10:14:13;;;;;;;7.65;2.55;;;;;;;25.77;48.71;98429.38;1225645;75;2917673;-67
2023/09/07 10:16:46;;;;;;;2.15;1.80;;;;;;;26.21;48.32;98424.25;1224936;75;2921369;-67
2023/09/07 10:19:21;;;;;;;2.85;2.20;;;;;;;25.93;48.42;98426.00;1225021;75;2909007;-68
2023/09/07 10:21:58;;;;;;;2.45;1.85;;;;;;;26.05;48.77;98425.59;1225006;75;2923711;-66
2023/09/07 10:24:35;;;;;;;4.50;2.40;;;;;;;25.79;48.91;98424.69;1224804;75;2924271;-69
2023/09/07 10:27:11;;;;;;;3.30;2.10;;;;;;;26.03;48.97;98428.25;1224963;75;2928119;-67
2023/09/07 10:29:48;;;;;;;3.10;2.40;;;;;;;26.52;49.37;98413.66;1224637;75;2950651;-65
2023/09/07 10:32:21;;;;;;;3.40;2.10;;;;;;;26.39;45.94;98421.59;1225142;75;2922402;-65
2023/09/07 10:34:55;;;;;;;2.50;1.90;;;;;;;27.00;47.44;98410.06;1225124;75;2923952;-65
2023/09/07 10:37:33;;;;;;;3.80;2.35;;;;;;;27.02;47.05;98413.06;1185857;75;6000566;-67
2023/09/07 10:40:11;;;;;;;2.60;2.10;;;;;;;26.78;45.93;98414.50;1219240;75;3335764;-66
2023/09/07 10:42:44;;;;;;;3.70;2.20;;;;;;;27.17;44.97;98409.41;1225348;75;2922397;-70
2023/09/07 10:45:19;;;;;;;2.35;1.70;;;;;;;26.88;44.86;98409.03;1223920;75;2932273;-67
2023/09/07 10:47:51;;;;;;;2.00;1.60;;;;;;;27.16;44.55;98403.03;1223752;75;2928126;-67
2023/09/07 10:50:24;;;;;;;2.70;1.80;;;;;;;27.35;44.88;98396.19;1223534;75;2926528;-64
2023/09/07 10:53:00;;;;;;;2.15;1.70;;;;;;;27.25;47.28;98400.94;1224660;75;2931007;-68
2023/09/07 10:55:41;;;;;;;3.45;2.10;;;;;;;27.19;46.69;98398.38;1225108;75;2920217;-66
2023/09/07 10:58:13;;;;;;;2.80;2.05;;;;;;;27.63;44.47;98392.94;1224200;75;2923902;-68
2023/09/07 11:00:46;;;;;;;2.75;2.40;;;;;;;27.74;44.69;98385.34;1224107;75;2924957;-67
2023/09/07 11:03:18;;;;;;;3.75;1.90;;;;;;;27.88;44.80;98385.78;1224560;75;2920869;-67
2023/09/07 11:05:52;;;;;;;2.50;1.85;;;;;;;28.02;45.70;98384.91;1225569;75;2922969;-65
2023/09/07 11:08:27;;;;;;;2.25;1.80;;;;;;;28.32;44.83;98387.94;1224632;75;2920013;-67
2023/09/07 11:11:00;;;;;;;3.95;2.40;;;;;;;27.33;44.96;98388.31;1224911;75;2919161;-66
2023/09/07 11:13:33;;;;;;;2.95;2.15;;;;;;;27.38;44.38;98384.53;1224738;75;2916717;-66
2023/09/07 11:16:06;;;;;;;3.65;2.15;;;;;;;27.21;45.16;98387.31;1224503;75;2923173;-66
2023/09/07 11:18:39;;;;;;;3.70;2.05;;;;;;;27.75;45.20;98375.56;1223537;75;2922311;-66
2023/09/07 11:21:13;;;;;;;2.60;1.80;;;;;;;27.56;45.06;98370.50;1224007;75;2919907;-67
2023/09/07 11:23:49;;;;;;;1.95;1.50;;;;;;;27.93;45.21;98362.31;1224892;75;2921398;-66
2023/09/07 11:26:23;;;;;;;2.90;2.00;;;;;;;27.60;45.83;98356.78;1224459;75;2921590;-67
2023/09/07 11:28:55;;;;;;;5.75;2.55;;;;;;;27.38;45.55;98361.28;1223868;75;2922164;-67
2023/09/07 11:31:28;;;;;;;3.10;2.30;;;;;;;27.65;45.72;98355.78;1224506;75;2918671;-67
2023/09/07 11:34:00;;;;;;;2.10;1.55;;;;;;;28.39;45.24;98356.88;1223946;75;2918893;-67
2023/09/07 11:36:33;;;;;;;2.50;1.90;;;;;;;28.08;45.04;98348.03;1225159;75;2925849;-64
2023/09/07 11:39:12;;;;;;;2.85;2.10;;;;;;;27.89;44.63;98353.53;1224671;75;2921343;-68
2023/09/07 11:41:46;;;;;;;3.60;2.30;;;;;;;27.92;46.78;98346.72;1225407;75;2926199;-65